createdAt,value
2022-09-28T00:01:56.999Z,4.18
2022-09-28T00:04:24.323Z,4.03
2022-09-28T00:06:51.700Z,4.20
2022-09-28T00:09:49.451Z,4.43
2022-09-28T00:13:36.220Z,4.15
2022-09-28T00:17:19.259Z,4.63
2022-09-28T00:20:31.295Z,4.32
2022-09-28T00:23:02.478Z,4.03
2022-09-28T00:25:33.921Z,4.68
2022-09-28T00:28:09.787Z,4.70
2022-09-28T00:30:42.689Z,4.90
2022-09-28T00:33:14.095Z,5.53
2022-09-28T00:35:41.248Z,5.15
2022-09-28T00:38:09.346Z,5.25
2022-09-28T00:40:41.412Z,4.80
2022-09-28T00:43:28.860Z,4.30
2022-09-28T00:46:18.914Z,5.07
2022-09-28T00:48:55.789Z,4.45
2022-09-28T00:51:27.131Z,4.63
2022-09-28T00:53:57.870Z,4.32
2022-09-28T00:56:30.864Z,5.70
2022-09-28T00:58:59.917Z,5.18
2022-09-28T01:01:28.339Z,4.88
2022-09-28T01:03:55.303Z,4.75
2022-09-28T01:06:29.058Z,5.15
2022-09-28T01:09:00.778Z,5.00
2022-09-28T01:11:40.097Z,5.47
2022-09-28T01:14:42.083Z,5.35
2022-09-28T01:17:57.865Z,5.43
2022-09-28T01:21:33.887Z,5.55
2022-09-28T01:25:05.941Z,5.90
2022-09-28T01:27:59.092Z,5.78
2022-09-28T01:31:07.891Z,5.65
2022-09-28T01:34:09.409Z,6.90
2022-09-28T01:36:42.869Z,6.18
2022-09-28T01:42:27.630Z,5.90
2022-09-28T01:45:08.168Z,5.65
2022-09-28T01:47:38.595Z,6.88
2022-09-28T01:50:13.512Z,7.40
2022-09-28T01:53:30.105Z,6.60
2022-09-28T01:56:14.433Z,6.63
2022-09-28T01:59:07.158Z,6.65
2022-09-28T02:01:56.003Z,5.93
2022-09-28T02:04:36.701Z,6.20
2022-09-28T02:07:31.128Z,5.90
2022-09-28T02:10:06.016Z,6.57
2022-09-28T02:12:36.223Z,6.28
2022-09-28T02:18:02.394Z,6.93
2022-09-28T02:20:32.933Z,7.60
2022-09-28T02:23:02.280Z,8.32
2022-09-28T02:25:41.705Z,8.05
2022-09-28T02:28:12.229Z,8.27
2022-09-28T02:30:49.056Z,8.73
2022-09-28T02:33:20.712Z,8.13
2022-09-28T02:35:48.197Z,8.00
2022-09-28T02:38:19.505Z,9.35
2022-09-28T02:41:01.781Z,9.35
2022-09-28T02:43:43.681Z,10.20
2022-09-28T02:46:26.883Z,13.15
2022-09-28T02:49:21.488Z,15.02
2022-09-28T02:51:58.296Z,17.88
2022-09-28T02:54:53.887Z,18.05
2022-09-28T02:57:35.375Z,18.02
2022-09-28T03:00:13.471Z,17.58
2022-09-28T03:02:51.668Z,18.48
2022-09-28T03:05:55.911Z,19.73
2022-09-28T03:08:31.295Z,19.42
2022-09-28T03:11:00.981Z,19.05
2022-09-28T03:13:28.725Z,19.73
2022-09-28T03:16:13.189Z,18.48
2022-09-28T03:18:42.364Z,18.33
2022-09-28T03:21:11.449Z,17.98
2022-09-28T03:23:39.193Z,16.80
2022-09-28T03:26:08.591Z,14.80
2022-09-28T03:28:36.372Z,14.38
2022-09-28T03:31:04.690Z,14.57
2022-09-28T03:33:31.756Z,13.75
2022-09-28T03:35:58.856Z,14.50
2022-09-28T03:38:26.367Z,13.48
2022-09-28T03:40:58.734Z,13.45
2022-09-28T03:43:27.213Z,13.68
2022-09-28T03:45:59.119Z,14.73
2022-09-28T03:48:32.351Z,14.63
2022-09-28T03:51:02.466Z,15.80
2022-09-28T03:53:30.252Z,17.05
2022-09-28T03:56:03.723Z,18.05
2022-09-28T03:58:31.666Z,18.95
2022-09-28T04:01:06.419Z,20.02
2022-09-28T04:03:33.675Z,20.20
2022-09-28T04:06:00.894Z,20.92
2022-09-28T04:08:28.080Z,21.15
2022-09-28T04:10:59.017Z,22.63
2022-09-28T04:13:26.968Z,21.80
2022-09-28T04:15:56.040Z,22.15
2022-09-28T04:18:23.737Z,21.88
2022-09-28T04:21:13.349Z,22.25
2022-09-28T04:23:46.595Z,22.70
2022-09-28T04:26:19.636Z,21.38
2022-09-28T04:29:07.688Z,21.33
2022-09-28T04:31:40.603Z,20.60
2022-09-28T04:34:08.315Z,20.30
2022-09-28T04:36:35.342Z,19.00
2022-09-28T04:39:02.613Z,20.75
2022-09-28T04:41:31.562Z,21.75
2022-09-28T04:43:58.654Z,21.52
2022-09-28T04:46:26.331Z,21.05
2022-09-28T04:49:13.815Z,21.08
2022-09-28T04:51:46.330Z,19.65
2022-09-28T04:54:13.442Z,18.02
2022-09-28T04:56:41.917Z,16.27
2022-09-28T04:59:10.188Z,15.95
2022-09-28T05:01:37.793Z,15.45
2022-09-28T05:04:04.619Z,15.55
2022-09-28T05:06:38.051Z,14.35
2022-09-28T05:09:07.258Z,14.70
2022-09-28T05:11:34.167Z,13.82
2022-09-28T05:14:02.015Z,13.40
2022-09-28T05:16:31.005Z,13.00
2022-09-28T05:19:16.664Z,11.18
2022-09-28T05:21:47.015Z,10.57
2022-09-28T05:24:14.371Z,10.55
2022-09-28T05:26:44.701Z,10.43
2022-09-28T05:29:11.730Z,10.23
2022-09-28T05:32:01.909Z,9.40
2022-09-28T05:34:44.911Z,9.68
2022-09-28T05:39:47.349Z,8.15
2022-09-28T05:42:14.477Z,8.48
2022-09-28T05:44:43.256Z,7.55
2022-09-28T05:47:10.725Z,6.78
2022-09-28T05:49:40.825Z,6.50
2022-09-28T05:52:07.664Z,6.30
2022-09-28T05:54:37.917Z,6.20
2022-09-28T05:57:06.466Z,6.57
2022-09-28T05:59:35.247Z,6.28
2022-09-28T06:02:03.572Z,5.97
2022-09-28T06:04:31.027Z,5.45
2022-09-28T06:06:58.940Z,5.63
2022-09-28T06:09:26.816Z,5.28
2022-09-28T06:12:18.260Z,5.53
2022-09-28T06:14:49.310Z,5.88
2022-09-28T06:17:16.641Z,5.45
2022-09-28T06:19:48.805Z,5.28
2022-09-28T06:22:44.814Z,5.50
2022-09-28T06:25:13.208Z,5.40
2022-09-28T06:27:42.420Z,5.75
2022-09-28T06:30:10.196Z,6.10
2022-09-28T06:32:37.895Z,6.20
2022-09-28T06:35:12.899Z,5.28
2022-09-28T06:37:44.501Z,5.53
2022-09-28T06:40:11.417Z,5.63
2022-09-28T06:42:38.398Z,4.90
2022-09-28T06:45:31.607Z,5.15
2022-09-28T06:48:22.506Z,5.18
2022-09-28T06:50:49.947Z,5.32
2022-09-28T06:53:43.366Z,4.65
2022-09-28T06:56:32.923Z,3.67
2022-09-28T06:59:00.711Z,4.35
2022-09-28T07:01:28.717Z,3.80
2022-09-28T07:04:04.006Z,4.43
2022-09-28T07:06:50.567Z,4.63
2022-09-28T07:09:42.657Z,4.55
2022-09-28T07:12:41.171Z,5.15
2022-09-28T07:15:25.242Z,4.97
2022-09-28T07:18:02.733Z,4.85
2022-09-28T07:20:44.533Z,4.25
2022-09-28T07:23:19.266Z,4.40
2022-09-28T07:26:18.530Z,3.83
2022-09-28T07:29:07.286Z,5.10
2022-09-28T07:31:40.033Z,3.50
2022-09-28T07:34:25.289Z,3.40
2022-09-28T07:37:04.244Z,3.65
2022-09-28T07:39:31.073Z,3.80
2022-09-28T07:42:02.589Z,3.90
2022-09-28T07:44:30.969Z,3.40
2022-09-28T07:46:58.365Z,3.65
2022-09-28T07:49:44.495Z,3.45
2022-09-28T07:52:36.228Z,3.28
2022-09-28T07:55:11.135Z,3.10
2022-09-28T07:58:01.014Z,2.63
2022-09-28T08:00:48.315Z,3.10
2022-09-28T08:03:17.440Z,3.15
2022-09-28T08:05:45.758Z,2.67
2022-09-28T08:08:13.356Z,2.50
2022-09-28T08:10:46.530Z,2.70
2022-09-28T08:13:27.009Z,2.47
2022-09-28T08:16:20.626Z,2.50
2022-09-28T08:18:54.996Z,2.80
2022-09-28T08:21:41.406Z,2.70
2022-09-28T08:24:08.380Z,2.60
2022-09-28T08:26:36.163Z,2.95
2022-09-28T08:29:03.295Z,5.63
2022-09-28T08:31:48.978Z,4.35
2022-09-28T08:34:37.127Z,7.78
2022-09-28T08:37:09.808Z,3.47
2022-09-28T08:39:55.262Z,3.58
2022-09-28T08:42:53.161Z,6.40
2022-09-28T08:45:43.321Z,3.75
2022-09-28T08:49:01.141Z,3.53
2022-09-28T08:51:49.046Z,3.00
2022-09-28T08:56:55.807Z,2.72
2022-09-28T08:59:32.040Z,2.63
2022-09-28T09:02:21.364Z,2.57
2022-09-28T09:04:49.555Z,2.47
2022-09-28T09:07:38.304Z,2.55
2022-09-28T09:10:37.462Z,2.78
2022-09-28T09:13:11.785Z,2.70
2022-09-28T09:15:55.451Z,3.03
2022-09-28T09:18:58.751Z,2.47
2022-09-28T09:21:46.946Z,2.60
2022-09-28T09:24:21.609Z,3.20
2022-09-28T09:27:02.356Z,3.20
2022-09-28T09:29:33.530Z,3.08
2022-09-28T09:32:13.477Z,2.70
2022-09-28T09:34:42.993Z,2.80
2022-09-28T09:37:58.651Z,3.22
2022-09-28T09:41:05.141Z,2.30
2022-09-28T09:44:16.669Z,2.28
2022-09-28T09:47:04.557Z,2.28
2022-09-28T09:49:52.815Z,2.10
2022-09-28T09:52:27.284Z,2.20
2022-09-28T09:55:00.057Z,3.75
2022-09-28T09:57:45.547Z,2.17
2022-09-28T10:00:31.739Z,2.20
2022-09-28T10:03:31.635Z,2.58
2022-09-28T10:06:27.486Z,2.30
2022-09-28T10:09:06.884Z,2.10
2022-09-28T10:11:41.447Z,2.28
2022-09-28T10:14:16.544Z,2.10
2022-09-28T10:16:51.311Z,2.58
2022-09-28T10:19:38.378Z,1.88
2022-09-28T10:22:38.652Z,2.22
2022-09-28T10:25:12.845Z,2.13
2022-09-28T10:27:46.550Z,2.22
2022-09-28T10:30:19.049Z,2.20
2022-09-28T10:32:48.905Z,2.10
2022-09-28T10:35:19.994Z,2.15
2022-09-28T10:38:00.839Z,2.10
2022-09-28T10:41:03.649Z,2.10
2022-09-28T10:47:00.443Z,2.67
2022-09-28T10:49:53.977Z,2.50
2022-09-28T10:52:41.759Z,2.63
2022-09-28T10:55:29.244Z,2.45
2022-09-28T10:57:57.721Z,2.33
2022-09-28T11:00:36.132Z,2.45
2022-09-28T11:03:28.173Z,3.20
2022-09-28T11:06:07.219Z,2.55
2022-09-28T11:08:42.231Z,2.70
2022-09-28T11:11:15.297Z,2.35
2022-09-28T11:13:48.656Z,2.67
2022-09-28T11:16:32.573Z,2.33
2022-09-28T11:19:25.324Z,2.40
2022-09-28T11:21:52.435Z,2.33
2022-09-28T11:24:26.055Z,2.15
2022-09-28T11:27:00.056Z,2.63
2022-09-28T11:29:42.351Z,2.35
2022-09-28T11:32:42.148Z,2.75
2022-09-28T11:35:52.891Z,2.78
2022-09-28T11:38:40.433Z,3.30
2022-09-28T11:41:53.650Z,2.60
2022-09-28T11:44:46.843Z,2.33
2022-09-28T11:47:32.985Z,2.92
2022-09-28T11:50:37.979Z,2.67
2022-09-28T11:53:18.089Z,2.53
2022-09-28T11:56:14.819Z,2.88
2022-09-28T11:58:49.270Z,2.47
2022-09-28T12:01:28.376Z,2.65
2022-09-28T12:04:42.201Z,3.55
2022-09-28T12:07:23.883Z,2.80
2022-09-28T12:10:14.386Z,3.20
2022-09-28T12:12:56.886Z,3.30
2022-09-28T12:19:09.888Z,2.70
2022-09-28T12:21:44.729Z,2.88
2022-09-28T12:24:24.954Z,2.88
2022-09-28T12:27:07.363Z,3.45
2022-09-28T12:29:51.799Z,2.90
2022-09-28T12:32:35.951Z,2.80
2022-09-28T12:35:10.953Z,2.70
2022-09-28T12:37:55.070Z,2.75
2022-09-28T12:40:36.032Z,3.10
2022-09-28T12:43:40.997Z,2.67
2022-09-28T12:46:31.485Z,2.60
2022-09-28T12:50:01.931Z,3.00
2022-09-28T12:52:10.227Z,2.90
2022-09-28T12:55:07.101Z,3.00
2022-09-28T12:58:21.714Z,2.78
2022-09-28T13:02:07.052Z,2.53
2022-09-28T13:05:00.911Z,2.88
2022-09-28T13:09:04.619Z,3.20
2022-09-28T13:19:29.935Z,2.70
2022-09-28T13:22:34.683Z,3.03
2022-09-28T13:25:17.240Z,3.05
2022-09-28T13:27:50.579Z,2.53
2022-09-28T13:32:47.576Z,3.15
2022-09-28T13:35:19.733Z,3.15
2022-09-28T13:38:01.853Z,3.10
2022-09-28T13:41:06.269Z,2.70
2022-09-28T13:44:26.999Z,2.92
2022-09-28T13:47:32.445Z,2.78
2022-09-28T13:51:03.253Z,2.83
2022-09-28T13:54:21.577Z,3.17
2022-09-28T14:00:31.392Z,3.60
2022-09-28T14:03:53.270Z,2.65
2022-09-28T14:07:40.248Z,3.28
2022-09-28T14:14:32.069Z,3.33
2022-09-28T14:17:23.262Z,3.00
2022-09-28T14:20:09.263Z,2.97
2022-09-28T14:23:05.739Z,3.13
2022-09-28T14:25:36.059Z,3.15
2022-09-28T14:28:09.748Z,3.42
2022-09-28T14:30:42.982Z,3.50
2022-09-28T14:33:19.287Z,3.03
2022-09-28T14:35:49.120Z,3.22
2022-09-28T14:38:40.140Z,3.15
2022-09-28T14:41:26.339Z,3.20
2022-09-28T14:44:04.713Z,3.40
2022-09-28T14:46:35.764Z,4.38
2022-09-28T14:49:07.672Z,2.83
2022-09-28T14:51:35.437Z,3.30
2022-09-28T14:54:06.315Z,3.75
2022-09-28T14:56:42.163Z,3.30
2022-09-28T14:59:14.790Z,3.50
2022-09-28T15:01:45.513Z,3.72
2022-09-28T15:04:13.374Z,2.80
2022-09-28T15:06:46.544Z,2.47
2022-09-28T15:09:34.759Z,3.80
2022-09-28T15:12:13.243Z,2.92
2022-09-28T15:14:46.011Z,2.80
2022-09-28T15:17:17.881Z,2.70
2022-09-28T15:19:58.392Z,7.90
2022-09-28T15:22:26.089Z,2.60
2022-09-28T15:25:05.179Z,2.85
2022-09-28T15:27:37.212Z,2.63
2022-09-28T15:30:24.288Z,2.75
2022-09-28T15:32:56.954Z,2.78
2022-09-28T15:35:26.724Z,3.35
2022-09-28T15:37:56.860Z,2.60
2022-09-28T15:40:35.478Z,2.92
2022-09-28T15:43:20.606Z,2.47
2022-09-28T15:46:03.244Z,3.40
2022-09-28T15:48:47.115Z,2.83
2022-09-28T15:51:14.437Z,3.88
2022-09-28T15:53:58.344Z,2.90
2022-09-28T15:56:26.355Z,2.90
2022-09-28T15:59:32.570Z,3.30
2022-09-28T16:02:22.913Z,3.00
2022-09-28T16:04:54.268Z,3.17
2022-09-28T16:07:41.927Z,3.28
2022-09-28T16:10:13.027Z,3.55
2022-09-28T16:12:40.028Z,2.97
2022-09-28T16:15:27.152Z,3.35
2022-09-28T16:18:02.792Z,3.33
2022-09-28T16:20:34.374Z,3.22
2022-09-28T16:23:16.248Z,3.45
2022-09-28T16:26:03.728Z,3.28
2022-09-28T16:28:38.093Z,3.05
2022-09-28T16:31:23.784Z,3.05
2022-09-28T16:34:01.296Z,3.22
2022-09-28T16:36:39.521Z,4.13
2022-09-28T16:39:07.572Z,4.00
2022-09-28T16:41:34.803Z,4.43
2022-09-28T16:44:02.777Z,4.03
2022-09-28T16:46:37.336Z,5.05
2022-09-28T16:49:06.677Z,5.13
2022-09-28T16:51:46.038Z,5.70
2022-09-28T16:54:40.425Z,6.07
2022-09-28T16:57:09.915Z,6.40
2022-09-28T16:59:39.683Z,7.00
2022-09-28T17:02:35.356Z,7.10
2022-09-28T17:05:03.232Z,7.60
2022-09-28T17:07:30.162Z,7.82
2022-09-28T17:09:58.039Z,7.88
2022-09-28T17:12:29.034Z,7.68
2022-09-28T17:14:56.272Z,7.38
2022-09-28T17:17:23.538Z,7.85
2022-09-28T17:19:50.568Z,8.10
2022-09-28T17:22:18.411Z,7.32
2022-09-28T17:24:46.224Z,7.65
2022-09-28T17:27:16.940Z,8.80
2022-09-28T17:29:44.921Z,8.77
2022-09-28T17:32:20.681Z,8.25
2022-09-28T17:35:00.706Z,8.73
2022-09-28T17:37:36.289Z,9.15
2022-09-28T17:40:25.791Z,8.60
2022-09-28T17:42:56.195Z,8.77
2022-09-28T17:45:28.705Z,8.88
2022-09-28T17:47:57.361Z,8.43
2022-09-28T17:50:34.050Z,9.10
2022-09-28T17:53:10.668Z,8.77
2022-09-28T17:55:50.241Z,9.38
2022-09-28T17:58:23.573Z,8.88
2022-09-28T18:00:53.177Z,8.80
2022-09-28T18:03:27.533Z,8.65
2022-09-28T18:06:41.184Z,8.15
2022-09-28T18:09:14.507Z,8.80
2022-09-28T18:14:37.393Z,8.02
2022-09-28T18:17:09.140Z,8.15
2022-09-28T18:19:41.132Z,7.70
2022-09-28T18:22:10.682Z,7.90
2022-09-28T18:24:40.575Z,7.93
2022-09-28T18:27:09.194Z,8.55
2022-09-28T18:29:40.564Z,7.30
2022-09-28T18:32:14.317Z,7.40
2022-09-28T18:37:35.012Z,8.45
2022-09-28T18:40:07.511Z,8.20
2022-09-28T18:42:36.453Z,7.27
2022-09-28T18:45:05.814Z,7.53
2022-09-28T18:47:33.248Z,6.90
2022-09-28T18:50:09.075Z,6.60
2022-09-28T18:52:43.710Z,7.55
2022-09-28T18:55:14.496Z,7.20
2022-09-28T18:57:42.430Z,7.30
2022-09-28T19:00:14.875Z,7.18
2022-09-28T19:02:44.940Z,6.60
2022-09-28T19:05:13.171Z,6.80
2022-09-28T19:07:49.373Z,6.43
2022-09-28T19:10:20.958Z,6.07
2022-09-28T19:12:52.099Z,6.00
2022-09-28T19:15:22.669Z,5.80
2022-09-28T19:17:53.009Z,6.30
2022-09-28T19:20:23.741Z,5.88
2022-09-28T19:26:15.122Z,6.15
2022-09-28T19:28:51.120Z,5.63
2022-09-28T19:31:22.107Z,5.38
2022-09-28T19:33:54.703Z,5.78
2022-09-28T19:36:24.134Z,6.00
2022-09-28T19:38:58.322Z,6.07
2022-09-28T19:41:48.774Z,5.72
2022-09-28T19:44:28.687Z,5.60
2022-09-28T19:47:04.315Z,6.70
2022-09-28T19:49:37.418Z,5.75
2022-09-28T19:52:32.050Z,6.43
2022-09-28T19:55:06.785Z,6.03
2022-09-28T19:57:34.899Z,6.78
2022-09-28T20:00:03.849Z,5.90
2022-09-28T20:02:37.237Z,6.13
2022-09-28T20:05:05.565Z,5.82
2022-09-28T20:07:40.006Z,6.22
2022-09-28T20:10:12.052Z,6.15
2022-09-28T20:12:42.344Z,6.10
2022-09-28T20:15:14.135Z,6.55
2022-09-28T20:17:52.121Z,6.07
2022-09-28T20:20:20.137Z,6.07
2022-09-28T20:22:52.142Z,5.85
2022-09-28T20:25:21.209Z,6.72
2022-09-28T20:27:49.942Z,6.38
2022-09-28T20:30:17.038Z,6.60
2022-09-28T20:33:00.167Z,5.95
2022-09-28T20:35:33.318Z,6.18
2022-09-28T20:38:08.388Z,6.32
2022-09-28T20:40:44.454Z,5.97
2022-09-28T20:43:32.965Z,5.95
2022-09-28T20:46:01.980Z,5.93
2022-09-28T20:48:30.098Z,6.45
2022-09-28T20:51:16.008Z,6.28
2022-09-28T20:53:55.077Z,6.53
2022-09-28T20:56:24.634Z,6.43
2022-09-28T20:59:04.410Z,6.65
2022-09-28T21:01:34.313Z,7.82
2022-09-28T21:04:05.774Z,7.22
2022-09-28T21:06:42.000Z,7.72
2022-09-28T21:09:11.493Z,7.25
2022-09-28T21:11:42.231Z,6.38
2022-09-28T21:16:55.577Z,7.10
2022-09-28T21:19:26.892Z,7.55
2022-09-28T21:22:10.121Z,7.40
2022-09-28T21:24:52.724Z,7.15
2022-09-28T21:27:24.823Z,6.97
2022-09-28T21:29:56.500Z,6.87
2022-09-28T21:32:26.271Z,7.15
2022-09-28T21:35:04.955Z,7.07
2022-09-28T21:37:38.348Z,7.70
2022-09-28T21:40:09.945Z,7.88
2022-09-28T21:42:53.455Z,7.88
2022-09-28T21:45:21.411Z,7.72
2022-09-28T21:47:56.088Z,8.07
2022-09-28T21:50:26.165Z,7.45
2022-09-28T21:52:56.870Z,7.50
2022-09-28T21:55:24.491Z,7.88
2022-09-28T21:58:09.625Z,7.13
2022-09-28T22:00:38.363Z,7.07
2022-09-28T22:03:06.573Z,7.10
2022-09-28T22:05:34.161Z,7.68
2022-09-28T22:08:12.624Z,7.47
2022-09-28T22:10:40.327Z,7.95
2022-09-28T22:13:07.324Z,7.28
2022-09-28T22:15:40.455Z,8.25
2022-09-28T22:18:21.216Z,8.75
2022-09-28T22:20:48.680Z,7.97
2022-09-28T22:23:16.010Z,7.93
2022-09-28T22:29:08.374Z,9.02
2022-09-28T22:31:44.839Z,8.38
2022-09-28T22:34:23.119Z,8.32
2022-09-28T22:36:55.152Z,8.38
2022-09-28T22:39:37.510Z,8.82
2022-09-28T22:47:35.672Z,8.65
2022-09-28T22:50:24.077Z,9.68
2022-09-28T22:52:51.118Z,9.77
2022-09-28T22:55:18.335Z,9.43
2022-09-28T22:57:45.535Z,9.88
2022-09-28T23:00:13.501Z,10.10
2022-09-28T23:03:11.128Z,9.82
2022-09-28T23:05:42.230Z,11.35
2022-09-28T23:08:10.566Z,10.23
2022-09-28T23:10:37.889Z,10.55
2022-09-28T23:13:10.393Z,10.68
2022-09-28T23:16:08.992Z,11.63
2022-09-28T23:18:54.402Z,11.40
2022-09-28T23:21:27.093Z,11.52
2022-09-28T23:24:02.436Z,11.68
2022-09-28T23:26:32.109Z,10.43
2022-09-28T23:29:02.143Z,11.00
2022-09-28T23:31:33.500Z,11.07
2022-09-28T23:34:03.230Z,10.90
2022-09-28T23:36:30.695Z,11.32
2022-09-28T23:38:58.281Z,11.52
2022-09-28T23:41:25.596Z,11.02
2022-09-28T23:43:52.520Z,11.32
2022-09-28T23:46:20.902Z,11.35
2022-09-28T23:48:49.626Z,11.63
2022-09-28T23:51:16.993Z,11.02
2022-09-28T23:53:44.359Z,11.35
2022-09-28T23:56:14.417Z,11.40
2022-09-28T23:58:41.541Z,12.05
